createdAt,value
2023-05-09T00:00:27.633Z,10.48
2023-05-09T00:02:55.111Z,10.48
2023-05-09T00:05:22.849Z,10.48
2023-05-09T00:07:50.293Z,10.47
2023-05-09T00:10:17.658Z,10.45
2023-05-09T00:12:45.130Z,10.44
2023-05-09T00:15:13.350Z,10.44
2023-05-09T00:17:40.978Z,10.45
2023-05-09T00:20:12.125Z,10.46
2023-05-09T00:22:41.090Z,10.46
2023-05-09T00:25:09.464Z,10.46
2023-05-09T00:27:37.011Z,10.44
2023-05-09T00:30:04.910Z,10.44
2023-05-09T00:32:33.421Z,10.45
2023-05-09T00:35:00.930Z,10.46
2023-05-09T00:37:29.420Z,10.46
2023-05-09T00:39:56.744Z,10.44
2023-05-09T00:42:24.325Z,10.43
2023-05-09T00:44:51.769Z,10.45
2023-05-09T00:47:19.026Z,10.47
2023-05-09T00:49:46.580Z,10.47
2023-05-09T00:52:14.144Z,10.48
2023-05-09T00:54:41.594Z,10.48
2023-05-09T00:57:09.173Z,10.47
2023-05-09T00:59:36.729Z,10.47
2023-05-09T01:02:04.286Z,10.48
2023-05-09T01:04:32.556Z,10.49
2023-05-09T01:06:59.965Z,10.50
2023-05-09T01:09:39.247Z,10.52
2023-05-09T01:12:13.148Z,10.55
2023-05-09T01:15:02.533Z,10.56
2023-05-09T01:17:39.048Z,10.57
2023-05-09T01:20:15.554Z,10.58
2023-05-09T01:22:47.525Z,10.57
2023-05-09T01:25:35.451Z,10.54
2023-05-09T01:28:08.635Z,10.56
2023-05-09T01:30:36.615Z,10.58
2023-05-09T01:33:05.532Z,10.57
2023-05-09T01:35:33.676Z,10.54
2023-05-09T01:38:01.455Z,10.52
2023-05-09T01:40:29.823Z,10.51
2023-05-09T01:42:58.512Z,10.52
2023-05-09T01:45:26.574Z,10.52
2023-05-09T01:47:54.212Z,10.54
2023-05-09T01:50:21.759Z,10.55
2023-05-09T01:52:50.093Z,10.57
2023-05-09T01:55:17.939Z,10.57
2023-05-09T01:57:45.714Z,10.56
2023-05-09T02:00:14.185Z,10.55
2023-05-09T02:02:41.526Z,10.52
2023-05-09T02:05:10.332Z,10.49
2023-05-09T02:07:38.195Z,10.48
2023-05-09T02:10:05.958Z,10.47
2023-05-09T02:12:33.929Z,10.45
2023-05-09T02:15:01.788Z,10.44
2023-05-09T02:17:31.059Z,10.43
2023-05-09T02:19:58.953Z,10.42
2023-05-09T02:22:26.623Z,10.42
2023-05-09T02:24:54.179Z,10.41
2023-05-09T02:27:21.743Z,10.40
2023-05-09T02:29:51.055Z,10.38
2023-05-09T02:32:20.477Z,10.34
2023-05-09T02:34:48.099Z,10.31
2023-05-09T02:37:15.566Z,10.31
2023-05-09T02:39:43.437Z,10.32
2023-05-09T02:42:11.537Z,10.34
2023-05-09T02:44:42.021Z,10.34
2023-05-09T02:47:09.894Z,10.34
2023-05-09T02:49:37.748Z,10.35
2023-05-09T02:52:05.283Z,10.34
2023-05-09T02:54:32.889Z,10.33
2023-05-09T02:57:00.734Z,10.33
2023-05-09T02:59:28.819Z,10.34
2023-05-09T03:01:57.430Z,10.35
2023-05-09T03:04:26.091Z,10.35
2023-05-09T03:06:53.649Z,10.35
2023-05-09T03:09:21.807Z,10.34
2023-05-09T03:11:50.497Z,10.33
2023-05-09T03:14:18.678Z,10.34
2023-05-09T03:16:46.213Z,10.36
2023-05-09T03:19:21.264Z,10.38
2023-05-09T03:21:49.161Z,10.39
2023-05-09T03:24:17.197Z,10.42
2023-05-09T03:26:44.863Z,10.44
2023-05-09T03:29:12.327Z,10.44
2023-05-09T03:31:39.699Z,10.43
2023-05-09T03:34:07.435Z,10.46
2023-05-09T03:36:34.885Z,10.50
2023-05-09T03:39:02.671Z,10.55
2023-05-09T03:41:30.440Z,10.58
2023-05-09T03:43:58.178Z,10.60
2023-05-09T03:46:26.201Z,10.63
2023-05-09T03:48:53.817Z,10.66
2023-05-09T03:51:21.793Z,10.70
2023-05-09T03:53:49.852Z,10.76
2023-05-09T03:56:17.539Z,10.82
2023-05-09T03:58:50.918Z,10.89
2023-05-09T04:01:18.520Z,10.97
2023-05-09T04:03:46.771Z,11.07
2023-05-09T04:06:14.921Z,11.18
2023-05-09T04:08:44.258Z,11.26
2023-05-09T04:11:11.981Z,11.33
2023-05-09T04:13:41.692Z,11.39
2023-05-09T04:16:41.593Z,11.44
2023-05-09T04:19:09.893Z,11.48
2023-05-09T04:21:38.672Z,11.50
2023-05-09T04:24:07.657Z,11.54
2023-05-09T04:26:46.500Z,11.60
2023-05-09T04:29:16.707Z,11.65
2023-05-09T04:31:48.843Z,11.69
2023-05-09T04:34:16.955Z,11.72
2023-05-09T04:36:46.046Z,11.75
2023-05-09T04:39:14.326Z,11.78
2023-05-09T04:41:50.188Z,11.84
2023-05-09T04:44:18.857Z,11.91
2023-05-09T04:46:46.957Z,11.97
2023-05-09T04:49:14.591Z,12.04
2023-05-09T04:51:42.359Z,12.09
2023-05-09T04:54:09.772Z,12.11
2023-05-09T04:56:37.985Z,12.10
2023-05-09T04:59:05.980Z,12.10
2023-05-09T05:01:33.562Z,12.10
2023-05-09T05:04:01.798Z,12.13
2023-05-09T05:06:30.375Z,12.16
2023-05-09T05:08:58.439Z,12.18
2023-05-09T05:11:25.698Z,12.21
2023-05-09T05:13:53.112Z,12.24
2023-05-09T05:16:20.998Z,12.25
2023-05-09T05:18:48.882Z,12.27
2023-05-09T05:21:16.740Z,12.31
2023-05-09T05:23:45.694Z,12.37
2023-05-09T05:26:13.709Z,12.41
2023-05-09T05:28:41.495Z,12.48
2023-05-09T05:31:09.117Z,12.54
2023-05-09T05:33:37.214Z,12.60
2023-05-09T05:36:05.521Z,12.64
2023-05-09T05:38:33.264Z,12.66
2023-05-09T05:41:01.518Z,12.71
2023-05-09T05:43:29.790Z,12.75
2023-05-09T05:46:00.327Z,12.81
2023-05-09T05:48:29.214Z,12.90
2023-05-09T05:50:56.579Z,13.00
2023-05-09T05:53:26.495Z,13.08
2023-05-09T05:55:54.447Z,13.12
2023-05-09T05:58:21.731Z,13.17
2023-05-09T06:00:49.871Z,13.25
2023-05-09T06:03:17.927Z,13.30
2023-05-09T06:05:50.186Z,13.37
2023-05-09T06:08:17.980Z,13.42
2023-05-09T06:10:45.636Z,13.45
2023-05-09T06:13:13.612Z,13.50
2023-05-09T06:15:45.365Z,13.55
2023-05-09T06:18:12.666Z,13.57
2023-05-09T06:20:40.507Z,13.60
2023-05-09T06:23:08.051Z,13.67
2023-05-09T06:25:35.502Z,13.73
2023-05-09T06:28:03.160Z,13.81
2023-05-09T06:30:30.512Z,13.90
2023-05-09T06:32:58.648Z,14.00
2023-05-09T06:35:26.348Z,14.13
2023-05-09T06:37:53.610Z,14.26
2023-05-09T06:40:21.269Z,14.35
2023-05-09T06:42:48.837Z,14.42
2023-05-09T06:45:17.251Z,14.48
2023-05-09T06:47:45.221Z,14.53
2023-05-09T06:50:12.935Z,14.56
2023-05-09T06:52:40.592Z,14.57
2023-05-09T06:55:09.565Z,14.59
2023-05-09T06:57:37.132Z,14.62
2023-05-09T07:00:05.298Z,14.64
2023-05-09T07:02:33.065Z,14.69
2023-05-09T07:05:00.979Z,14.71
2023-05-09T07:07:28.595Z,14.72
2023-05-09T07:10:07.356Z,14.74
2023-05-09T07:12:38.543Z,14.73
2023-05-09T07:15:06.970Z,14.77
2023-05-09T07:17:35.967Z,14.82
2023-05-09T07:20:05.149Z,14.82
2023-05-09T07:22:34.112Z,14.85
2023-05-09T07:25:03.786Z,14.88
2023-05-09T07:27:31.311Z,14.92
2023-05-09T07:29:58.776Z,15.02
2023-05-09T07:32:29.020Z,15.17
2023-05-09T07:34:56.650Z,15.35
2023-05-09T07:37:24.416Z,15.53
2023-05-09T07:39:52.479Z,15.70
2023-05-09T07:42:19.867Z,15.82
2023-05-09T07:44:47.392Z,15.94
2023-05-09T07:47:14.744Z,16.08
2023-05-09T07:49:43.614Z,16.21
2023-05-09T07:52:11.401Z,16.31
2023-05-09T07:54:38.988Z,16.43
2023-05-09T07:57:06.629Z,16.54
2023-05-09T07:59:34.383Z,16.64
2023-05-09T08:02:02.087Z,16.73
2023-05-09T08:04:30.695Z,16.85
2023-05-09T08:06:59.650Z,16.99
2023-05-09T08:09:27.005Z,17.13
2023-05-09T08:11:54.435Z,17.20
2023-05-09T08:14:22.012Z,17.25
2023-05-09T08:16:49.361Z,17.33
2023-05-09T08:19:17.217Z,17.39
2023-05-09T08:21:44.680Z,17.39
2023-05-09T08:24:12.033Z,17.38
2023-05-09T08:26:39.153Z,17.39
2023-05-09T08:29:06.637Z,17.41
2023-05-09T08:31:34.162Z,17.40
2023-05-09T08:34:02.374Z,17.42
2023-05-09T08:36:30.229Z,17.49
2023-05-09T08:38:57.589Z,17.60
2023-05-09T08:41:25.552Z,17.65
2023-05-09T08:43:53.427Z,17.64
2023-05-09T08:46:23.760Z,17.68
2023-05-09T08:48:51.820Z,17.72
2023-05-09T08:51:19.082Z,17.74
2023-05-09T08:53:46.831Z,17.73
2023-05-09T08:56:14.033Z,17.74
2023-05-09T08:58:41.635Z,17.80
2023-05-09T09:01:09.989Z,17.91
2023-05-09T09:03:37.680Z,18.00
2023-05-09T09:06:05.237Z,18.14
2023-05-09T09:08:33.004Z,18.23
2023-05-09T09:11:00.663Z,18.24
2023-05-09T09:13:28.680Z,18.25
2023-05-09T09:15:56.294Z,18.31
2023-05-09T09:18:24.159Z,18.23
2023-05-09T09:20:52.660Z,18.09
2023-05-09T09:23:20.919Z,17.98
2023-05-09T09:25:48.717Z,17.91
2023-05-09T09:28:16.553Z,17.88
2023-05-09T09:30:49.795Z,17.92
2023-05-09T09:33:21.650Z,17.94
2023-05-09T09:35:50.192Z,17.96
2023-05-09T09:38:18.561Z,18.05
2023-05-09T09:40:51.751Z,18.21
2023-05-09T09:43:19.504Z,18.40
2023-05-09T09:45:51.425Z,18.39
2023-05-09T09:48:19.072Z,18.24
2023-05-09T09:50:47.888Z,18.01
2023-05-09T09:53:15.493Z,17.85
2023-05-09T09:55:52.362Z,17.94
2023-05-09T09:58:22.203Z,18.17
2023-05-09T10:00:54.290Z,18.48
2023-05-09T10:03:22.245Z,18.77
2023-05-09T10:05:49.764Z,18.86
2023-05-09T10:08:17.528Z,18.80
2023-05-09T10:10:45.401Z,18.70
2023-05-09T10:13:13.166Z,18.58
2023-05-09T10:15:52.380Z,18.43
2023-05-09T10:18:23.510Z,18.26
2023-05-09T10:20:51.203Z,18.15
2023-05-09T10:23:18.651Z,18.04
2023-05-09T10:25:49.901Z,17.91
2023-05-09T10:28:18.379Z,17.82
2023-05-09T10:30:58.481Z,17.83
2023-05-09T10:33:28.081Z,18.03
2023-05-09T10:35:56.432Z,18.40
2023-05-09T10:38:25.207Z,18.81
2023-05-09T10:40:53.681Z,19.07
2023-05-09T10:43:24.343Z,19.18
2023-05-09T10:45:52.235Z,19.13
2023-05-09T10:48:19.637Z,18.98
2023-05-09T10:50:47.216Z,18.78
2023-05-09T10:53:17.227Z,18.59
2023-05-09T10:55:55.727Z,18.43
2023-05-09T10:58:27.278Z,18.28
2023-05-09T11:00:57.121Z,18.19
2023-05-09T11:03:25.652Z,18.10
2023-05-09T11:05:54.275Z,18.05
2023-05-09T11:08:22.736Z,18.11
2023-05-09T11:10:50.296Z,18.26
2023-05-09T11:13:24.764Z,18.41
2023-05-09T11:16:02.245Z,18.53
2023-05-09T11:18:29.870Z,18.64
2023-05-09T11:20:57.240Z,19.01
2023-05-09T11:23:26.422Z,19.76
2023-05-09T11:25:54.190Z,20.56
2023-05-09T11:28:32.426Z,21.08
2023-05-09T11:31:18.766Z,21.21
2023-05-09T11:33:47.483Z,21.02
2023-05-09T11:36:20.740Z,20.69
2023-05-09T11:38:48.266Z,20.29
2023-05-09T11:41:16.207Z,19.86
2023-05-09T11:43:44.820Z,19.46
2023-05-09T11:46:13.228Z,19.09
2023-05-09T11:48:42.094Z,18.75
2023-05-09T11:51:16.265Z,18.47
2023-05-09T11:53:47.496Z,18.24
2023-05-09T11:56:15.073Z,18.07
2023-05-09T11:58:42.835Z,17.91
2023-05-09T12:01:12.233Z,17.77
2023-05-09T12:03:45.799Z,17.75
2023-05-09T12:06:15.545Z,18.07
2023-05-09T12:08:44.023Z,18.74
2023-05-09T12:11:11.682Z,19.38
2023-05-09T12:13:48.777Z,19.73
2023-05-09T12:16:16.976Z,19.78
2023-05-09T12:18:47.902Z,19.59
2023-05-09T12:21:15.978Z,19.36
2023-05-09T12:23:44.631Z,19.13
2023-05-09T12:26:12.704Z,18.90
2023-05-09T12:28:40.270Z,18.66
2023-05-09T12:31:08.144Z,18.51
2023-05-09T12:33:37.740Z,18.38
2023-05-09T12:36:06.792Z,18.37
2023-05-09T12:38:34.297Z,18.44
2023-05-09T12:41:06.688Z,18.51
2023-05-09T12:43:36.530Z,18.51
2023-05-09T12:46:04.141Z,18.45
2023-05-09T12:48:35.216Z,18.35
2023-05-09T12:51:03.558Z,18.23
2023-05-09T12:53:32.039Z,18.13
2023-05-09T12:56:03.885Z,18.01
2023-05-09T12:58:34.535Z,17.85
2023-05-09T13:01:04.271Z,17.83
2023-05-09T13:03:38.159Z,17.87
2023-05-09T13:06:06.932Z,17.90
2023-05-09T13:08:34.492Z,17.90
2023-05-09T13:11:14.935Z,17.90
2023-05-09T13:13:44.081Z,17.98
2023-05-09T13:16:13.469Z,18.11
2023-05-09T13:18:43.264Z,18.30
2023-05-09T13:21:10.932Z,18.54
2023-05-09T13:23:38.892Z,18.74
2023-05-09T13:26:06.763Z,18.88
2023-05-09T13:28:34.527Z,18.90
2023-05-09T13:31:03.370Z,18.88
2023-05-09T13:33:31.258Z,18.85
2023-05-09T13:35:59.045Z,18.77
2023-05-09T13:38:27.449Z,18.66
2023-05-09T13:40:55.314Z,18.60
2023-05-09T13:43:24.195Z,18.52
2023-05-09T13:45:51.992Z,18.52
2023-05-09T13:48:19.799Z,18.56
2023-05-09T13:50:47.437Z,18.54
2023-05-09T13:53:14.721Z,18.50
2023-05-09T13:55:43.212Z,18.43
2023-05-09T13:58:10.866Z,18.34
2023-05-09T14:00:38.930Z,18.24
2023-05-09T14:03:07.823Z,18.17
2023-05-09T14:05:35.486Z,18.07
2023-05-09T14:08:03.775Z,18.01
2023-05-09T14:10:31.525Z,17.97
2023-05-09T14:12:59.123Z,17.94
2023-05-09T14:15:26.641Z,17.89
2023-05-09T14:17:54.417Z,17.81
2023-05-09T14:20:22.077Z,17.73
2023-05-09T14:22:49.562Z,17.67
2023-05-09T14:25:17.298Z,17.67
2023-05-09T14:27:45.158Z,17.66
2023-05-09T14:30:13.048Z,17.65
2023-05-09T14:32:41.086Z,17.60
2023-05-09T14:35:09.078Z,17.55
2023-05-09T14:37:36.822Z,17.52
2023-05-09T14:40:05.872Z,17.48
2023-05-09T14:42:33.172Z,17.45
2023-05-09T14:45:01.677Z,17.39
2023-05-09T14:47:29.025Z,17.34
2023-05-09T14:49:56.990Z,17.26
2023-05-09T14:52:24.430Z,17.20
2023-05-09T14:54:51.987Z,17.12
2023-05-09T14:57:19.648Z,17.03
2023-05-09T14:59:47.146Z,16.94
2023-05-09T15:02:15.176Z,16.85
2023-05-09T15:04:44.169Z,16.77
2023-05-09T15:07:12.920Z,16.66
2023-05-09T15:09:40.518Z,16.58
2023-05-09T15:12:07.975Z,16.51
2023-05-09T15:14:35.532Z,16.48
2023-05-09T15:17:04.565Z,16.46
2023-05-09T15:19:33.311Z,16.44
2023-05-09T15:22:01.182Z,16.46
2023-05-09T15:24:28.849Z,16.51
2023-05-09T15:26:57.123Z,16.52
2023-05-09T15:29:24.576Z,16.51
2023-05-09T15:31:52.350Z,16.48
2023-05-09T15:34:19.696Z,16.42
2023-05-09T15:36:47.455Z,16.31
2023-05-09T15:39:16.461Z,16.20
2023-05-09T15:41:44.026Z,16.13
2023-05-09T15:44:11.804Z,16.07
2023-05-09T15:46:40.092Z,16.01
2023-05-09T15:49:07.615Z,15.96
2023-05-09T15:51:35.266Z,15.89
2023-05-09T15:54:02.727Z,15.82
2023-05-09T15:56:30.284Z,15.75
2023-05-09T15:58:59.174Z,15.70
2023-05-09T16:01:26.757Z,15.68
2023-05-09T16:03:54.571Z,15.65
2023-05-09T16:06:22.467Z,15.63
2023-05-09T16:08:50.742Z,15.59
2023-05-09T16:11:18.320Z,15.57
2023-05-09T16:13:47.619Z,15.53
2023-05-09T16:16:15.304Z,15.49
2023-05-09T16:18:43.239Z,15.46
2023-05-09T16:21:10.835Z,15.42
2023-05-09T16:23:39.887Z,15.38
2023-05-09T16:26:07.468Z,15.35
2023-05-09T16:28:35.109Z,15.31
2023-05-09T16:31:05.121Z,15.27
2023-05-09T16:33:32.987Z,15.23
2023-05-09T16:36:00.448Z,15.20
2023-05-09T16:38:28.108Z,15.17
2023-05-09T16:40:55.580Z,15.10
2023-05-09T16:43:22.960Z,15.04
2023-05-09T16:45:50.375Z,14.97
2023-05-09T16:48:18.247Z,14.94
2023-05-09T16:50:45.799Z,14.90
2023-05-09T16:53:13.262Z,14.86
2023-05-09T16:55:41.226Z,14.79
2023-05-09T16:58:08.824Z,14.71
2023-05-09T17:00:36.548Z,14.64
2023-05-09T17:03:04.150Z,14.61
2023-05-09T17:05:31.981Z,14.59
2023-05-09T17:07:59.526Z,14.54
2023-05-09T17:10:27.088Z,14.51
2023-05-09T17:12:58.630Z,14.47
2023-05-09T17:15:27.224Z,14.40
2023-05-09T17:17:56.310Z,14.36
2023-05-09T17:20:26.539Z,14.32
2023-05-09T17:22:54.428Z,14.28
2023-05-09T17:25:22.907Z,14.23
2023-05-09T17:27:52.520Z,14.19
2023-05-09T17:30:22.801Z,14.17
2023-05-09T17:32:50.958Z,14.13
2023-05-09T17:35:23.795Z,14.10
2023-05-09T17:37:51.875Z,14.07
2023-05-09T17:40:19.916Z,14.04
2023-05-09T17:42:47.477Z,14.00
2023-05-09T17:45:14.930Z,13.96
2023-05-09T17:47:43.035Z,13.92
2023-05-09T17:50:14.648Z,13.86
2023-05-09T17:52:42.325Z,13.80
2023-05-09T17:55:10.595Z,13.77
2023-05-09T17:57:38.153Z,13.77
2023-05-09T18:00:09.410Z,13.74
2023-05-09T18:02:44.719Z,13.73
2023-05-09T18:05:13.764Z,13.71
2023-05-09T18:07:41.492Z,13.67
2023-05-09T18:10:09.772Z,13.64
2023-05-09T18:12:37.491Z,13.60
2023-05-09T18:15:06.124Z,13.58
2023-05-09T18:17:33.598Z,13.55
2023-05-09T18:20:01.131Z,13.52
2023-05-09T18:22:28.915Z,13.50
2023-05-09T18:24:56.461Z,13.46
2023-05-09T18:27:24.148Z,13.42
2023-05-09T18:29:51.885Z,13.38
2023-05-09T18:32:19.953Z,13.33
2023-05-09T18:34:48.747Z,13.29
2023-05-09T18:37:17.538Z,13.23
2023-05-09T18:39:45.916Z,13.19
2023-05-09T18:42:16.167Z,13.16
2023-05-09T18:44:44.303Z,13.11
2023-05-09T18:47:12.392Z,13.08
2023-05-09T18:49:40.139Z,13.04
2023-05-09T18:52:08.520Z,13.02
2023-05-09T18:54:36.892Z,13.01
2023-05-09T18:57:04.195Z,13.02
2023-05-09T18:59:32.145Z,13.02
2023-05-09T19:01:59.672Z,13.02
2023-05-09T19:04:28.015Z,13.03
2023-05-09T19:06:55.700Z,13.04
2023-05-09T19:09:23.384Z,13.07
2023-05-09T19:11:50.830Z,13.09
2023-05-09T19:14:20.948Z,13.11
2023-05-09T19:16:54.158Z,13.14
2023-05-09T19:19:22.626Z,13.14
2023-05-09T19:21:50.908Z,13.16
2023-05-09T19:24:18.668Z,13.15
2023-05-09T19:26:46.234Z,13.16
2023-05-09T19:29:13.878Z,13.16
2023-05-09T19:31:41.543Z,13.15
2023-05-09T19:34:08.998Z,13.13
2023-05-09T19:36:36.665Z,13.10
2023-05-09T19:39:05.653Z,13.05
2023-05-09T19:41:33.242Z,13.02
2023-05-09T19:44:00.774Z,12.98
2023-05-09T19:46:28.239Z,12.95
2023-05-09T19:48:55.887Z,12.91
2023-05-09T19:51:23.651Z,12.87
2023-05-09T19:53:51.114Z,12.85
2023-05-09T19:56:18.873Z,12.83
2023-05-09T19:58:50.017Z,12.81
2023-05-09T20:01:17.863Z,12.79
2023-05-09T20:03:47.177Z,12.73
2023-05-09T20:06:15.053Z,12.69
2023-05-09T20:08:45.170Z,12.66
2023-05-09T20:11:16.215Z,12.63
2023-05-09T20:13:45.312Z,12.61
2023-05-09T20:16:13.333Z,12.58
2023-05-09T20:18:41.363Z,12.54
2023-05-09T20:21:10.905Z,12.49
2023-05-09T20:23:40.006Z,12.43
2023-05-09T20:26:07.804Z,12.40
2023-05-09T20:28:35.793Z,12.39
2023-05-09T20:31:03.954Z,12.37
2023-05-09T20:33:31.715Z,12.34
2023-05-09T20:35:59.681Z,12.33
2023-05-09T20:38:27.547Z,12.32
2023-05-09T20:40:55.309Z,12.30
2023-05-09T20:43:23.072Z,12.29
2023-05-09T20:45:52.240Z,12.28
2023-05-09T20:48:23.216Z,12.27
2023-05-09T20:50:51.180Z,12.26
2023-05-09T20:53:18.849Z,12.24
2023-05-09T20:55:47.795Z,12.24
2023-05-09T20:58:16.722Z,12.27
2023-05-09T21:00:47.262Z,12.28
2023-05-09T21:03:15.215Z,12.26
2023-05-09T21:05:42.886Z,12.21
2023-05-09T21:08:10.253Z,12.18
2023-05-09T21:10:37.694Z,12.15
2023-05-09T21:13:05.481Z,12.14
2023-05-09T21:15:32.917Z,12.11
2023-05-09T21:18:00.261Z,12.09
2023-05-09T21:20:27.933Z,12.11
2023-05-09T21:22:55.487Z,12.12
2023-05-09T21:25:23.255Z,12.12
2023-05-09T21:27:50.809Z,12.10
2023-05-09T21:30:18.676Z,12.10
2023-05-09T21:32:46.361Z,12.10
2023-05-09T21:35:15.638Z,12.09
2023-05-09T21:37:43.510Z,12.08
2023-05-09T21:40:11.470Z,12.05
2023-05-09T21:42:41.089Z,12.00
2023-05-09T21:45:09.088Z,11.98
2023-05-09T21:47:37.016Z,11.96
2023-05-09T21:50:04.986Z,11.94
2023-05-09T21:52:32.541Z,11.90
2023-05-09T21:54:59.918Z,11.85
2023-05-09T21:57:27.551Z,11.81
2023-05-09T21:59:56.449Z,11.80
2023-05-09T22:02:23.968Z,11.80
2023-05-09T22:04:51.576Z,11.78
2023-05-09T22:07:19.030Z,11.78
2023-05-09T22:09:46.597Z,11.76
2023-05-09T22:12:13.935Z,11.75
2023-05-09T22:14:48.858Z,11.78
2023-05-09T22:17:24.645Z,11.80
2023-05-09T22:19:52.421Z,11.80
2023-05-09T22:22:20.247Z,11.82
2023-05-09T22:24:47.909Z,11.79
2023-05-09T22:27:15.301Z,11.75
2023-05-09T22:29:43.023Z,11.74
2023-05-09T22:32:10.698Z,11.76
2023-05-09T22:34:38.350Z,11.77
2023-05-09T22:37:06.637Z,11.81
2023-05-09T22:39:34.090Z,11.82
2023-05-09T22:42:04.317Z,11.82
2023-05-09T22:44:32.795Z,11.85
2023-05-09T22:47:00.753Z,11.86
2023-05-09T22:49:28.629Z,11.86
2023-05-09T22:51:56.177Z,11.87
2023-05-09T22:54:24.058Z,11.89
2023-05-09T22:56:51.502Z,11.89
2023-05-09T22:59:18.983Z,11.89
2023-05-09T23:01:46.747Z,11.88
2023-05-09T23:04:14.486Z,11.86
2023-05-09T23:06:42.045Z,11.80
2023-05-09T23:09:09.397Z,11.74
2023-05-09T23:11:37.062Z,11.71
2023-05-09T23:14:05.035Z,11.68
2023-05-09T23:16:32.520Z,11.64
2023-05-09T23:19:00.180Z,11.58
2023-05-09T23:21:27.710Z,11.50
2023-05-09T23:23:55.070Z,11.44
2023-05-09T23:26:22.623Z,11.38
2023-05-09T23:28:50.083Z,11.35
2023-05-09T23:31:17.917Z,11.34
2023-05-09T23:33:45.405Z,11.33
2023-05-09T23:36:13.095Z,11.30
2023-05-09T23:38:40.424Z,11.26
2023-05-09T23:41:07.772Z,11.22
2023-05-09T23:43:35.160Z,11.19
2023-05-09T23:46:02.891Z,11.18
2023-05-09T23:48:31.368Z,11.19
2023-05-09T23:50:59.133Z,11.20
2023-05-09T23:53:26.692Z,11.18
2023-05-09T23:55:54.249Z,11.16
2023-05-09T23:58:21.708Z,11.14
